Schwenksville, PA (19473)

6:13 PM EDT on August 31, 2016 (GMT -0400)
Highlands Fox Heath | | Change Station

Elev 249 ft 40.24 °N, 75.47 °W | Updated 7 seconds ago

Overcast
Overcast
85.1 °F
Feels Like 88 °F
N
0.0
Wind Variable Wind from West
Gusts 0.0 mph

Today
High -- | Low -- °F
--% Chance of Precip.
Yesterday
High -- | Low -- °F
Precip. -- in
Pressure 29.88 in
Visibility 9.0 miles
Clouds Scattered Clouds 6000 ft
Scattered Clouds 7000 ft
Overcast 11000 ft
Heat Index 88 °F
Dew Point 67 °F
Humidity 54%
Rainfall 0.00 in
Snow Depth Not available.
6:28 AM 7:34 PM
Waning Crescent, 0% visible
METAR KPTW 312154Z AUTO 00000KT 9SM SCT060 SCT070 OVC110 29/18 A2989 RMK AO2 LTG DSNT SW AND NW SLP116 T02890178
Pressure 29.88 in
Visibility 9.0 miles
Clouds Scattered Clouds 6000 ft
Scattered Clouds 7000 ft
Overcast 11000 ft
Heat Index 88 °F
Dew Point 67 °F
Humidity 54%
Rainfall 0.00 in
Snow Depth Not available.
6:28 AM 7:34 PM
Waning Crescent, 0% visible
METAR KPTW 312154Z AUTO 00000KT 9SM SCT060 SCT070 OVC110 29/18 A2989 RMK AO2 LTG DSNT SW AND NW SLP116 T02890178

10-Day Weather Forecast

Almanac

Astronomy

Aug. 31, 2016 Rise Set
Actual Time
Civil Twilight
Nautical Twilight
Astronomical Twilight
Moon
Length of Visible Light
Length of Day
Tomorrow will be .
, % of the Moon is Illuminated

Today's Extremes

State Highs State Lows

Community

WunderPhotos

Upload Photos

1,936,200 photos uploaded!

WunderBlog® & News

Nearby

Air Quality

  Air Quality AQ Index Pollutant
Not available.

Snow Depth

Station Depth Elevation

Earthquake Activity

City Distance Mag. Time & Date
Minimum magnitude displayed is 2.5.

Coastal Water Temperatures

Place Temperature

Stations

Nearby Weather Stations

Station Location Temp. Windchill Dew Point Humidity Wind Precip. Elev Updated Type
                   

Watches & Warnings

There are currently no watches in effect.